Time;durP1;ratioP1;P1;durP2;ratioP2;P2;SDS_P1;SDS_P2;PMS_P1;PMS_P2;Temp;Humidity;BMP_temperature;BMP_pressure;BME280_temperature;BME280_humidity;BME280_pressure;Samples;Min_cycle;Max_cycle;Signal;HPM_P1;HPM_P2
2024/03/17 00:01:01;;;;;;;17.73;14.20;;;7.50;99.90;;;;;;7364339;19;20039;-70
2024/03/17 00:03:30;;;;;;;19.98;13.65;;;7.50;99.90;;;;;;7364997;19;20013;-71
2024/03/17 00:06:00;;;;;;;18.13;14.13;;;7.50;99.90;;;;;;7364351;19;20010;-71
2024/03/17 00:08:27;;;;;;;19.23;13.57;;;7.60;99.90;;;;;;7364329;19;20036;-71
2024/03/17 00:10:59;;;;;;;17.88;13.32;;;7.60;99.90;;;;;;7365181;19;20583;-71
2024/03/17 00:13:25;;;;;;;17.23;13.25;;;7.40;99.90;;;;;;7365311;19;20495;-71
2024/03/17 00:15:55;;;;;;;17.27;12.65;;;7.40;99.90;;;;;;7372238;19;20477;-72
2024/03/17 00:18:21;;;;;;;15.93;12.50;;;7.30;99.90;;;;;;7377579;19;20014;-70
2024/03/17 00:20:50;;;;;;;16.50;13.15;;;7.30;99.90;;;;;;7378502;19;20013;-72
2024/03/17 00:23:16;;;;;;;19.85;13.15;;;7.20;99.90;;;;;;7378977;19;20013;-70
2024/03/17 00:25:46;;;;;;;16.90;12.27;;;7.20;99.90;;;;;;7377547;19;20010;-71
2024/03/17 00:28:14;;;;;;;17.38;13.13;;;7.20;99.90;;;;;;7374134;19;20030;-70
2024/03/17 00:30:44;;;;;;;17.08;12.88;;;7.20;99.90;;;;;;7378848;19;20018;-71
2024/03/17 00:33:10;;;;;;;15.35;13.50;;;7.20;99.90;;;;;;7379552;19;20011;-70
2024/03/17 00:35:39;;;;;;;17.00;12.82;;;7.10;99.90;;;;;;7377613;19;20115;-70
2024/03/17 00:38:10;;;;;;;20.63;13.15;;;7.10;99.90;;;;;;7376368;19;20022;-70
2024/03/17 00:40:40;;;;;;;19.00;14.88;;;7.20;99.90;;;;;;7372776;19;20014;-72
2024/03/17 00:43:08;;;;;;;28.50;16.33;;;7.10;99.90;;;;;;7364678;19;20006;-73
2024/03/17 00:45:40;;;;;;;85.85;18.58;;;7.20;99.90;;;;;;7363150;19;20048;-73
2024/03/17 00:48:07;;;;;;;158.82;23.92;;;7.30;99.90;;;;;;7359965;19;20018;-71
2024/03/17 00:50:36;;;;;;;167.60;21.25;;;7.20;99.90;;;;;;7367921;19;20027;-72
2024/03/17 00:53:04;;;;;;;146.55;21.48;;;7.30;99.90;;;;;;7369709;19;20028;-71
2024/03/17 00:55:33;;;;;;;56.90;16.88;;;7.20;99.90;;;;;;7364817;19;20015;-72
2024/03/17 00:57:59;;;;;;;148.60;22.70;;;7.20;99.90;;;;;;7364696;19;20006;-71
2024/03/17 01:00:28;;;;;;;68.82;19.85;;;7.00;99.90;;;;;;7360675;19;20379;-71
2024/03/17 01:02:57;;;;;;;161.93;22.38;;;7.10;99.90;;;;;;7368848;19;20031;-71
2024/03/17 01:05:26;;;;;;;181.65;26.38;;;7.10;99.90;;;;;;7364341;19;20511;-71
2024/03/17 01:07:53;;;;;;;170.65;29.55;;;7.10;99.90;;;;;;7366051;19;20015;-71
2024/03/17 01:10:22;;;;;;;105.55;25.20;;;7.10;99.90;;;;;;7362668;19;20011;-71
2024/03/17 01:12:48;;;;;;;89.55;25.58;;;7.20;99.90;;;;;;7366125;19;20106;-71
2024/03/17 01:15:17;;;;;;;70.30;24.83;;;7.20;99.90;;;;;;7365199;19;20651;-71
2024/03/17 01:17:43;;;;;;;65.82;21.80;;;7.20;99.90;;;;;;7365628;19;20506;-69
2024/03/17 01:20:15;;;;;;;116.22;28.08;;;7.30;99.90;;;;;;7362868;19;20011;-70
2024/03/17 01:22:41;;;;;;;44.08;22.63;;;7.40;99.90;;;;;;7365014;19;20006;-71
2024/03/17 01:25:10;;;;;;;242.82;37.35;;;7.40;99.90;;;;;;7364790;19;20858;-72
2024/03/17 01:27:37;;;;;;;91.93;27.48;;;7.40;99.90;;;;;;7364987;19;20081;-69
2024/03/17 01:30:07;;;;;;;166.50;33.40;;;7.50;99.90;;;;;;7362566;19;20018;-70
2024/03/17 01:32:33;;;;;;;161.30;35.15;;;7.60;99.90;;;;;;7364501;19;20010;-70
2024/03/17 01:35:02;;;;;;;151.30;31.08;;;7.60;99.90;;;;;;7364727;19;20014;-70
2024/03/17 01:37:31;;;;;;;218.73;37.42;;;7.70;99.90;;;;;;7363802;19;20014;-70
2024/03/17 01:40:01;;;;;;;164.35;32.30;;;7.50;99.90;;;;;;7361363;19;20402;-70
2024/03/17 01:42:29;;;;;;;128.68;30.02;;;7.50;99.90;;;;;;7362760;19;20010;-70
2024/03/17 01:44:58;;;;;;;226.65;37.95;;;7.40;99.90;;;;;;7366822;19;20014;-70
2024/03/17 01:47:24;;;;;;;135.90;36.10;;;7.30;99.90;;;;;;7364695;19;20014;-70
2024/03/17 01:49:54;;;;;;;139.23;35.13;;;7.50;99.90;;;;;;7361177;19;20056;-70
2024/03/17 01:52:21;;;;;;;75.70;31.20;;;7.60;99.90;;;;;;7365150;19;20097;-71
2024/03/17 01:54:53;;;;;;;65.60;32.28;;;7.50;99.90;;;;;;7369289;19;20010;-71
2024/03/17 01:57:19;;;;;;;43.80;27.70;;;7.60;99.90;;;;;;7370862;19;20721;-70
2024/03/17 01:59:48;;;;;;;48.17;26.88;;;7.60;99.90;;;;;;7370560;19;20014;-70
2024/03/17 02:02:16;;;;;;;39.53;24.65;;;7.60;99.90;;;;;;7374396;19;20429;-70
2024/03/17 02:04:45;;;;;;;41.10;23.92;;;7.50;99.90;;;;;;7380670;19;20022;-70
2024/03/17 02:07:11;;;;;;;45.75;26.15;;;7.40;99.90;;;;;;7380256;19;20070;-72
2024/03/17 02:09:40;;;;;;;44.22;25.02;;;7.40;99.90;;;;;;7370405;19;20011;-71
2024/03/17 02:12:11;;;;;;;41.53;23.58;;;7.40;99.90;;;;;;7371804;19;20014;-70
2024/03/17 02:14:41;;;;;;;43.33;23.23;;;7.30;99.90;;;;;;7370414;19;20081;-71
2024/03/17 02:17:07;;;;;;;76.88;24.02;;;7.20;99.90;;;;;;7368908;19;20415;-70
2024/03/17 02:19:36;;;;;;;62.97;23.95;;;7.20;99.90;;;;;;7372559;19;20007;-71
2024/03/17 02:22:03;;;;;;;58.50;24.05;;;6.90;99.90;;;;;;7371995;19;20022;-70
2024/03/17 02:24:35;;;;;;;71.30;25.23;;;7.10;99.90;;;;;;7370285;19;20021;-70
2024/03/17 02:27:01;;;;;;;42.55;23.13;;;7.00;99.90;;;;;;7374327;19;20014;-70
2024/03/17 02:29:30;;;;;;;46.20;22.50;;;7.20;99.90;;;;;;7376952;19;20014;-71
2024/03/17 02:31:56;;;;;;;46.58;23.33;;;7.10;99.90;;;;;;7379553;19;20742;-70
2024/03/17 02:34:25;;;;;;;42.53;22.10;;;7.10;99.90;;;;;;7380345;19;20014;-70
2024/03/17 02:36:51;;;;;;;47.03;22.30;;;7.20;99.90;;;;;;7379234;19;20389;-71
2024/03/17 02:42:05;;;;;;;59.72;23.63;;;7.10;99.90;;;;;;7380459;19;20325;-70
2024/03/17 02:44:35;;;;;;;52.75;23.55;;;7.00;99.90;;;;;;7381276;19;20018;-70
2024/03/17 02:47:08;;;;;;;36.83;22.52;;;7.00;99.90;;;;;;7382121;19;20070;-70
2024/03/17 02:49:39;;;;;;;36.10;21.05;;;7.10;99.90;;;;;;7375286;19;20010;-70
2024/03/17 02:52:09;;;;;;;32.10;19.38;;;7.10;99.90;;;;;;7368090;19;20025;-70
2024/03/17 02:54:39;;;;;;;34.42;20.88;;;7.10;99.90;;;;;;7371026;19;20303;-70
2024/03/17 02:57:11;;;;;;;30.95;18.70;;;7.00;99.90;;;;;;7369569;19;20014;-70
2024/03/17 02:59:40;;;;;;;31.00;19.23;;;7.10;99.90;;;;;;7370449;19;20010;-70
2024/03/17 03:02:09;;;;;;;28.15;18.63;;;7.10;99.90;;;;;;7367750;19;20006;-70
2024/03/17 03:04:38;;;;;;;35.05;19.27;;;7.10;99.90;;;;;;7369427;19;20014;-70
2024/03/17 03:07:07;;;;;;;46.90;18.52;;;7.20;99.90;;;;;;7368574;19;22273;-70
2024/03/17 03:09:36;;;;;;;45.58;18.63;;;7.00;99.90;;;;;;7370160;19;20010;-70
2024/03/17 03:12:07;;;;;;;27.75;16.70;;;7.00;99.90;;;;;;7367535;19;20030;-70
2024/03/17 03:14:39;;;;;;;31.05;18.85;;;7.10;99.90;;;;;;7368878;19;20010;-71
2024/03/17 03:17:08;;;;;;;38.20;18.15;;;6.90;99.90;;;;;;7368298;19;21004;-70
2024/03/17 03:19:37;;;;;;;51.67;19.35;;;6.90;99.90;;;;;;7369432;19;20462;-70
2024/03/17 03:22:06;;;;;;;41.00;17.58;;;6.80;99.90;;;;;;7366875;19;20015;-70
2024/03/17 03:24:35;;;;;;;60.90;22.23;;;6.80;99.90;;;;;;7370389;19;20014;-71
2024/03/17 03:27:04;;;;;;;32.60;17.60;;;6.70;99.90;;;;;;7369812;19;20359;-71
2024/03/17 03:29:33;;;;;;;29.08;18.23;;;6.80;99.90;;;;;;7369059;19;20038;-71
2024/03/17 03:32:04;;;;;;;22.48;16.38;;;6.70;99.90;;;;;;7365166;19;20546;-72
2024/03/17 03:34:33;;;;;;;27.25;17.08;;;6.70;99.90;;;;;;7368823;19;20671;-71
2024/03/17 03:37:02;;;;;;;24.48;16.08;;;6.70;99.90;;;;;;7369074;19;20035;-72
2024/03/17 03:39:31;;;;;;;28.52;16.45;;;6.60;99.90;;;;;;7368492;19;20017;-70
2024/03/17 03:42:00;;;;;;;28.50;16.63;;;6.60;99.90;;;;;;7367041;19;20014;-71
2024/03/17 03:44:30;;;;;;;28.00;15.80;;;6.60;99.90;;;;;;7368053;19;20418;-72
2024/03/17 03:47:00;;;;;;;28.98;16.27;;;6.50;99.90;;;;;;7367680;19;20039;-70
2024/03/17 03:49:33;;;;;;;27.00;15.63;;;6.40;99.90;;;;;;7368167;19;20530;-71
2024/03/17 03:52:02;;;;;;;24.88;14.15;;;6.40;99.90;;;;;;7367724;19;20011;-71
2024/03/17 03:54:31;;;;;;;23.02;15.15;;;6.40;99.90;;;;;;7368816;19;20096;-70
2024/03/17 03:57:00;;;;;;;23.75;14.23;;;6.40;99.90;;;;;;7367221;19;20074;-70
2024/03/17 03:59:29;;;;;;;20.33;13.95;;;6.20;99.90;;;;;;7368913;19;20071;-71
2024/03/17 04:01:58;;;;;;;20.27;13.75;;;6.30;99.90;;;;;;7370454;19;20007;-72
2024/03/17 04:04:27;;;;;;;22.90;13.57;;;6.20;99.90;;;;;;7378550;19;20579;-71
2024/03/17 04:06:59;;;;;;;17.23;13.02;;;6.20;99.90;;;;;;7378236;19;20006;-71
2024/03/17 04:09:29;;;;;;;17.95;12.50;;;6.20;99.90;;;;;;7379749;19;20069;-71
2024/03/17 04:11:57;;;;;;;15.77;11.85;;;6.20;99.90;;;;;;7378471;19;20011;-71
2024/03/17 04:14:26;;;;;;;18.08;12.15;;;6.20;99.90;;;;;;7379294;19;20035;-71
2024/03/17 04:16:55;;;;;;;14.88;11.35;;;6.20;99.90;;;;;;7378392;19;20359;-71
2024/03/17 04:19:25;;;;;;;16.58;11.73;;;6.20;99.90;;;;;;7378310;19;20017;-70
2024/03/17 04:21:54;;;;;;;19.08;12.25;;;6.10;99.90;;;;;;7381116;19;20006;-71
2024/03/17 04:24:27;;;;;;;18.75;13.02;;;6.10;99.90;;;;;;7376734;19;20014;-71
2024/03/17 04:26:56;;;;;;;14.95;11.38;;;6.10;99.90;;;;;;7375426;19;20002;-71
2024/03/17 04:29:25;;;;;;;13.55;10.23;;;6.00;99.90;;;;;;7381012;19;20007;-71
2024/03/17 04:31:53;;;;;;;16.00;11.32;;;6.00;99.90;;;;;;7380272;19;20094;-71
2024/03/17 04:34:22;;;;;;;17.77;12.13;;;6.00;99.90;;;;;;7381110;19;20036;-71
2024/03/17 04:36:51;;;;;;;16.83;11.60;;;5.90;99.90;;;;;;7378248;19;20467;-70
2024/03/17 04:39:20;;;;;;;84.38;15.10;;;5.90;99.90;;;;;;7379930;19;20025;-71
2024/03/17 04:41:53;;;;;;;138.05;20.48;;;5.90;99.90;;;;;;7379560;19;20066;-71
2024/03/17 04:44:22;;;;;;;144.25;19.25;;;5.90;99.90;;;;;;7380979;19;20082;-71
2024/03/17 04:46:51;;;;;;;170.35;21.42;;;5.70;99.90;;;;;;7377405;19;20040;-71
2024/03/17 04:49:20;;;;;;;202.65;22.17;;;5.80;99.90;;;;;;7378490;19;20002;-71
2024/03/17 04:51:49;;;;;;;56.75;14.13;;;5.70;99.90;;;;;;7377701;19;20358;-71
2024/03/17 04:54:18;;;;;;;41.60;13.05;;;5.50;99.90;;;;;;7378946;19;20082;-71
2024/03/17 04:56:48;;;;;;;18.90;12.02;;;5.40;99.90;;;;;;7378165;19;20090;-71
2024/03/17 04:59:16;;;;;;;17.30;12.13;;;5.40;99.90;;;;;;7379767;19;21657;-71
2024/03/17 05:01:46;;;;;;;16.52;11.10;;;5.40;99.90;;;;;;7379244;19;20011;-71
2024/03/17 05:04:15;;;;;;;13.43;10.55;;;5.40;99.90;;;;;;7379015;19;20009;-71
2024/03/17 05:06:46;;;;;;;16.70;11.65;;;5.30;99.90;;;;;;7377132;19;20003;-70
2024/03/17 05:09:15;;;;;;;14.30;11.20;;;5.30;99.90;;;;;;7378601;19;20027;-71
2024/03/17 05:11:44;;;;;;;15.55;10.93;;;5.20;99.90;;;;;;7377426;19;20006;-71
2024/03/17 05:14:14;;;;;;;16.75;11.55;;;5.10;99.90;;;;;;7377554;19;20018;-71
2024/03/17 05:16:45;;;;;;;17.98;11.63;;;5.10;99.90;;;;;;7375956;19;20006;-71
2024/03/17 05:19:14;;;;;;;16.52;11.55;;;5.20;99.90;;;;;;7376016;19;20960;-70
2024/03/17 05:21:43;;;;;;;16.50;11.88;;;5.20;99.90;;;;;;7378519;19;20015;-71
2024/03/17 05:24:12;;;;;;;16.63;11.77;;;5.20;99.90;;;;;;7377688;19;20006;-71
2024/03/17 05:26:42;;;;;;;19.52;12.52;;;5.10;99.90;;;;;;7375890;19;20477;-70
2024/03/17 05:29:11;;;;;;;17.58;11.23;;;5.10;99.90;;;;;;7377578;19;20010;-71
2024/03/17 05:31:40;;;;;;;16.95;11.85;;;5.00;99.90;;;;;;7377889;19;20072;-71
2024/03/17 05:34:12;;;;;;;18.10;12.02;;;4.90;99.90;;;;;;7377373;19;20006;-71
2024/03/17 05:36:41;;;;;;;18.05;11.77;;;4.90;99.90;;;;;;7376661;19;20451;-71
2024/03/17 05:39:09;;;;;;;18.50;12.35;;;4.90;99.90;;;;;;7377770;19;20031;-71
2024/03/17 05:41:38;;;;;;;15.25;10.55;;;4.90;99.90;;;;;;7376913;19;20613;-71
2024/03/17 05:44:07;;;;;;;15.73;11.45;;;4.90;99.90;;;;;;7376712;19;20656;-71
2024/03/17 05:46:36;;;;;;;16.35;11.32;;;5.00;99.90;;;;;;7376087;19;20013;-70
2024/03/17 05:49:06;;;;;;;16.10;10.82;;;5.00;99.90;;;;;;7377334;19;20031;-71
2024/03/17 05:51:38;;;;;;;16.73;11.70;;;5.10;99.90;;;;;;7377537;19;20015;-70
2024/03/17 05:54:07;;;;;;;20.73;11.48;;;5.10;99.90;;;;;;7377064;19;20017;-70
2024/03/17 05:56:35;;;;;;;14.85;9.52;;;5.10;99.90;;;;;;7375838;19;20006;-70
2024/03/17 05:59:05;;;;;;;12.77;9.38;;;5.20;99.90;;;;;;7376056;19;20006;-70
2024/03/17 06:01:35;;;;;;;13.10;8.80;;;5.10;99.90;;;;;;7376621;19;20015;-70
2024/03/17 06:04:04;;;;;;;11.27;8.05;;;5.10;99.90;;;;;;7376233;19;20351;-70
2024/03/17 06:06:34;;;;;;;11.50;8.30;;;5.10;99.90;;;;;;7374363;19;20494;-70
2024/03/17 06:09:08;;;;;;;13.55;8.38;;;5.10;99.90;;;;;;7379467;19;20377;-71
2024/03/17 06:11:38;;;;;;;13.07;8.48;;;5.00;99.90;;;;;;7373859;19;20032;-71
2024/03/17 06:14:11;;;;;;;14.15;8.32;;;5.10;99.90;;;;;;7376031;19;20032;-71
2024/03/17 06:16:40;;;;;;;12.48;8.88;;;5.10;99.90;;;;;;7375064;19;20081;-71
2024/03/17 06:19:09;;;;;;;13.50;8.90;;;5.20;99.90;;;;;;7374957;19;20014;-71
2024/03/17 06:21:38;;;;;;;10.55;7.78;;;5.40;99.90;;;;;;7375304;19;20384;-71
2024/03/17 06:24:10;;;;;;;12.40;8.70;;;5.30;99.90;;;;;;7375541;19;20017;-71
2024/03/17 06:26:39;;;;;;;10.45;8.27;;;5.50;99.90;;;;;;7374469;19;19998;-70
2024/03/17 06:29:08;;;;;;;10.43;8.02;;;5.60;99.90;;;;;;7374829;19;20415;-70
2024/03/17 06:31:37;;;;;;;10.38;8.10;;;5.70;99.90;;;;;;7376531;19;20559;-69
2024/03/17 06:34:05;;;;;;;9.90;8.05;;;5.70;99.90;;;;;;7375686;19;20011;-70
2024/03/17 06:36:34;;;;;;;12.00;7.97;;;5.70;99.90;;;;;;7374154;19;20109;-70
2024/03/17 06:39:03;;;;;;;11.43;8.75;;;6.00;99.90;;;;;;7378034;19;20036;-71
2024/03/17 06:41:35;;;;;;;10.48;8.45;;;6.10;99.90;;;;;;7381992;19;20006;-69
2024/03/17 06:44:06;;;;;;;10.85;8.57;;;6.20;99.90;;;;;;7376759;19;20380;-70
2024/03/17 06:46:35;;;;;;;10.43;8.70;;;6.20;99.90;;;;;;7381094;19;20022;-71
2024/03/17 06:49:04;;;;;;;9.60;7.30;;;6.50;99.90;;;;;;7384290;19;20007;-71
2024/03/17 06:51:33;;;;;;;8.60;6.60;;;6.70;99.90;;;;;;7386434;19;20015;-71
2024/03/17 06:54:03;;;;;;;10.38;7.22;;;6.60;97.00;;;;;;7383208;19;20007;-71
2024/03/17 06:56:35;;;;;;;8.10;6.55;;;6.50;59.10;;;;;;7382853;19;20455;-70
2024/03/17 06:59:04;;;;;;;8.75;7.00;;;6.60;73.40;;;;;;7380895;19;20014;-71
2024/03/17 07:01:33;;;;;;;8.77;6.60;;;6.60;56.90;;;;;;7384371;19;20010;-71
2024/03/17 07:04:02;;;;;;;8.73;6.70;;;6.60;40.40;;;;;;7378903;19;20011;-71
2024/03/17 07:06:31;;;;;;;8.90;6.47;;;6.70;30.90;;;;;;7381533;19;20010;-71
2024/03/17 07:09:01;;;;;;;8.90;6.80;;;6.80;27.00;;;;;;7377177;19;20713;-71
2024/03/17 07:11:30;;;;;;;8.25;6.10;;;7.00;20.40;;;;;;7381016;19;20018;-71
2024/03/17 07:14:02;;;;;;;7.97;6.80;;;6.90;11.00;;;;;;7382182;19;20006;-70
2024/03/17 07:16:32;;;;;;;7.18;5.82;;;6.80;1.00;;;;;;7378269;19;20022;-69
2024/03/17 07:19:00;;;;;;;8.15;6.60;;;6.80;1.00;;;;;;7381780;19;20009;-71
2024/03/17 07:21:29;;;;;;;8.25;6.60;;;6.90;1.00;;;;;;7381459;19;20024;-71
2024/03/17 07:23:59;;;;;;;7.90;6.35;;;7.10;2.20;;;;;;7381349;19;20010;-71
2024/03/17 07:26:28;;;;;;;8.00;6.65;;;7.10;1.00;;;;;;7378851;19;20002;-71
2024/03/17 07:28:57;;;;;;;9.75;6.53;;;7.20;1.00;;;;;;7381423;19;20469;-71
2024/03/17 07:31:29;;;;;;;8.63;6.57;;;7.20;1.00;;;;;;7380522;19;20007;-71
2024/03/17 07:33:58;;;;;;;8.93;7.43;;;7.20;1.00;;;;;;7379628;19;20081;-71
2024/03/17 07:36:26;;;;;;;10.07;8.15;;;7.20;1.00;;;;;;7379239;19;20022;-70
2024/03/17 07:38:55;;;;;;;14.07;8.55;;;7.30;1.00;;;;;;7378648;19;20014;-70
2024/03/17 07:41:25;;;;;;;11.07;8.95;;;7.30;1.00;;;;;;7379895;19;20023;-70
2024/03/17 07:43:54;;;;;;;10.95;7.78;;;7.50;1.00;;;;;;7380810;19;20396;-70
2024/03/17 07:46:23;;;;;;;11.02;8.65;;;7.50;1.00;;;;;;7380299;19;20002;-71
2024/03/17 07:48:54;;;;;;;11.35;8.50;;;7.70;1.00;;;;;;7380444;19;20016;-71
2024/03/17 07:51:23;;;;;;;12.43;9.18;;;7.90;1.00;;;;;;7378498;19;20449;-71
2024/03/17 07:53:52;;;;;;;14.88;10.00;;;7.80;1.00;;;;;;7380545;19;20513;-71
2024/03/17 07:56:21;;;;;;;11.63;8.88;;;8.00;1.00;;;;;;7380748;19;20024;-71
2024/03/17 07:58:51;;;;;;;12.80;9.15;;;8.10;1.00;;;;;;7378422;19;20054;-72
2024/03/17 08:01:20;;;;;;;12.20;8.82;;;8.30;1.00;;;;;;7381233;19;20014;-71
2024/03/17 08:03:55;;;;;;;12.48;9.13;;;8.70;1.00;;;;;;7381228;19;20014;-70
2024/03/17 08:06:26;;;;;;;13.50;9.55;;;8.90;1.00;;;;;;7379782;19;20101;-71
2024/03/17 08:08:55;;;;;;;11.50;8.70;;;9.10;1.00;;;;;;7382242;19;20056;-71
2024/03/17 08:11:24;;;;;;;12.63;8.68;;;9.00;1.00;;;;;;7380558;19;20470;-71
2024/03/17 08:13:54;;;;;;;14.38;9.60;;;8.90;1.00;;;;;;7381279;19;20013;-71
2024/03/17 08:16:24;;;;;;;12.90;9.27;;;9.10;1.00;;;;;;7379981;19;20508;-69
2024/03/17 08:18:53;;;;;;;14.25;9.55;;;9.40;1.00;;;;;;7381263;19;20466;-71
2024/03/17 08:21:22;;;;;;;12.82;10.73;;;9.40;1.00;;;;;;7381123;19;20014;-72
2024/03/17 08:23:53;;;;;;;12.18;10.20;;;9.40;1.00;;;;;;7381159;19;20451;-70
2024/03/17 08:26:22;;;;;;;12.43;9.43;;;9.50;1.00;;;;;;7378577;19;20006;-71
2024/03/17 08:28:51;;;;;;;11.80;10.57;;;9.60;1.00;;;;;;7380377;19;20463;-70
2024/03/17 08:31:20;;;;;;;12.18;10.88;;;9.60;1.00;;;;;;7379606;19;20011;-70
2024/03/17 08:33:50;;;;;;;12.25;10.82;;;9.60;1.00;;;;;;7380393;19;20031;-70
2024/03/17 08:36:22;;;;;;;12.70;11.40;;;9.80;1.00;;;;;;7380313;19;20010;-71
2024/03/17 08:38:54;;;;;;;13.23;11.30;;;9.80;1.00;;;;;;7381636;19;20027;-72
2024/03/17 08:41:23;;;;;;;13.68;12.23;;;9.80;1.00;;;;;;7361751;19;20077;-71
2024/03/17 08:43:52;;;;;;;14.50;12.50;;;9.60;1.00;;;;;;7361037;19;20750;-70
2024/03/17 08:46:21;;;;;;;13.88;12.18;;;9.90;1.00;;;;;;7364333;19;20006;-70
2024/03/17 08:48:51;;;;;;;13.95;11.88;;;9.70;1.00;;;;;;7358066;19;20490;-72
2024/03/17 08:51:20;;;;;;;14.68;12.23;;;9.90;1.00;;;;;;7361253;19;20010;-71
2024/03/17 08:53:49;;;;;;;14.25;11.80;;;10.00;1.00;;;;;;7361636;19;20185;-71
2024/03/17 08:56:22;;;;;;;13.05;11.73;;;10.10;1.00;;;;;;7353404;19;20035;-70
2024/03/17 08:58:51;;;;;;;12.23;10.90;;;10.40;1.00;;;;;;7364842;19;20061;-69
2024/03/17 09:01:20;;;;;;;12.48;11.10;;;10.30;1.00;;;;;;7360328;19;20359;-70
2024/03/17 09:03:52;;;;;;;14.48;11.18;;;10.70;1.00;;;;;;7364329;19;20010;-70
2024/03/17 09:06:22;;;;;;;11.48;9.80;;;10.60;1.00;;;;;;7365282;19;20396;-70
2024/03/17 09:08:51;;;;;;;12.65;9.60;;;10.80;1.00;;;;;;7365404;19;20015;-70
2024/03/17 09:11:25;;;;;;;10.88;9.18;;;10.70;1.00;;;;;;7362257;19;20010;-70
2024/03/17 09:13:54;;;;;;;10.05;8.98;;;10.90;1.00;;;;;;7365256;19;20011;-72
2024/03/17 09:16:24;;;;;;;12.85;8.60;;;10.60;1.00;;;;;;7363085;19;20012;-71
2024/03/17 09:18:53;;;;;;;9.38;7.10;;;10.90;1.00;;;;;;7363680;19;20509;-70
2024/03/17 09:21:23;;;;;;;10.40;8.30;;;11.30;1.00;;;;;;7360797;19;20408;-70
2024/03/17 09:23:52;;;;;;;10.13;8.55;;;11.40;1.00;;;;;;7363308;19;20127;-72
2024/03/17 09:26:24;;;;;;;9.52;8.20;;;11.70;1.00;;;;;;7363048;19;20038;-72
2024/03/17 09:28:53;;;;;;;9.25;8.25;;;11.80;1.00;;;;;;7363783;19;20042;-71
2024/03/17 09:31:22;;;;;;;8.98;8.07;;;11.70;1.00;;;;;;7358084;19;20014;-72
2024/03/17 09:33:52;;;;;;;9.80;7.95;;;11.50;1.00;;;;;;7360990;19;20086;-71
2024/03/17 09:36:21;;;;;;;10.07;8.52;;;11.50;1.00;;;;;;7365427;19;20025;-71
2024/03/17 09:38:50;;;;;;;9.93;8.18;;;11.60;1.00;;;;;;7364968;19;20062;-72
2024/03/17 09:41:28;;;;;;;9.77;8.77;;;11.70;1.00;;;;;;7361391;19;20063;-71
2024/03/17 09:43:58;;;;;;;10.48;8.10;;;11.60;1.00;;;;;;7358313;19;20544;-71
2024/03/17 09:46:29;;;;;;;9.93;8.32;;;11.60;1.00;;;;;;7359201;19;20014;-71
2024/03/17 09:48:58;;;;;;;9.85;8.63;;;11.60;1.00;;;;;;7359999;19;20070;-71
2024/03/17 09:51:28;;;;;;;10.85;9.25;;;11.50;1.00;;;;;;7357405;19;20019;-72
2024/03/17 09:53:57;;;;;;;10.88;9.43;;;11.20;1.00;;;;;;7362179;19;20010;-70
2024/03/17 09:56:28;;;;;;;10.77;9.30;;;11.60;1.00;;;;;;7360283;19;20036;-71
2024/03/17 09:58:57;;;;;;;10.25;8.70;;;11.70;1.00;;;;;;7364232;19;20119;-71
2024/03/17 10:01:27;;;;;;;11.10;10.00;;;11.70;1.00;;;;;;7361107;19;20364;-71
2024/03/17 10:03:58;;;;;;;10.57;9.10;;;11.80;1.00;;;;;;7364352;19;20597;-72
2024/03/17 10:06:29;;;;;;;10.60;9.48;;;11.80;1.00;;;;;;7363539;19;20046;-71
2024/03/17 10:09:03;;;;;;;9.85;8.80;;;11.90;1.00;;;;;;7364429;19;20123;-72
2024/03/17 10:11:38;;;;;;;10.75;8.85;;;11.70;1.00;;;;;;7360347;19;20049;-71
2024/03/17 10:14:09;;;;;;;9.93;8.50;;;11.80;1.00;;;;;;7364414;19;20023;-72
2024/03/17 10:16:40;;;;;;;9.23;8.32;;;12.00;1.00;;;;;;7367738;19;20018;-71
2024/03/17 10:19:11;;;;;;;10.55;9.00;;;12.40;1.00;;;;;;7369412;19;20006;-73
2024/03/17 10:21:40;;;;;;;10.30;8.35;;;12.60;1.00;;;;;;7368903;19;20112;-72
2024/03/17 10:24:11;;;;;;;9.23;8.23;;;12.30;1.00;;;;;;7369967;19;20011;-71
2024/03/17 10:26:46;;;;;;;10.57;7.60;;;12.30;1.00;;;;;;7368362;19;21300;-72
2024/03/17 10:29:24;;;;;;;8.38;7.03;;;12.40;1.00;;;;;;7368013;19;20372;-71
2024/03/17 10:31:55;;;;;;;8.77;7.85;;;12.40;1.00;;;;;;7369623;19;20489;-72
2024/03/17 10:34:28;;;;;;;8.65;7.50;;;12.40;1.00;;;;;;7370030;19;20093;-72
2024/03/17 10:37:09;;;;;;;8.57;7.13;;;12.30;1.00;;;;;;7369690;19;20010;-72
2024/03/17 10:39:39;;;;;;;7.47;6.40;;;12.40;1.00;;;;;;7364121;19;20006;-71
2024/03/17 10:42:13;;;;;;;7.45;6.63;;;12.60;1.00;;;;;;7368591;19;20429;-71
2024/03/17 10:44:45;;;;;;;;;;;12.60;1.00;;;;;;7369619;19;20010;-71
2024/03/17 10:47:23;;;;;;;7.07;5.85;;;12.40;1.00;;;;;;7368858;19;19910;-71
2024/03/17 10:49:54;;;;;;;6.40;5.32;;;12.50;1.00;;;;;;7368317;19;20010;-72
2024/03/17 10:52:25;;;;;;;6.03;5.43;;;12.30;1.00;;;;;;7368302;19;23885;-71
2024/03/17 10:54:55;;;;;;;6.95;5.30;;;12.70;1.00;;;;;;7369325;19;20794;-71
2024/03/17 10:57:35;;;;;;;5.10;4.60;;;12.90;1.00;;;;;;7366224;19;20007;-71
2024/03/17 11:00:08;;;;;;;6.25;4.63;;;12.90;1.00;;;;;;7368991;19;20017;-71
2024/03/17 11:02:39;;;;;;;5.25;4.03;;;13.20;1.00;;;;;;7366983;19;20039;-72
2024/03/17 11:05:14;;;;;;;4.90;4.40;;;13.00;1.00;;;;;;7368006;19;20003;-71
2024/03/17 11:07:46;;;;;;;9.70;8.20;;;12.90;1.00;;;;;;7370928;19;20026;-71
2024/03/17 11:10:19;;;;;;;7.88;6.00;;;13.20;1.00;;;;;;7368170;19;20041;-71
2024/03/17 11:12:52;;;;;;;6.70;4.80;;;13.20;1.00;;;;;;7369467;19;20021;-71
2024/03/17 11:15:45;;;;;;;5.07;4.50;;;13.40;1.00;;;;;;7367179;19;20456;-72
2024/03/17 11:18:31;;;;;;;8.25;4.45;;;13.60;1.00;;;;;;6857572;19;2004982;-72
2024/03/17 11:21:02;;;;;;;7.13;5.38;;;14.00;1.00;;;;;;7364999;19;20030;-71
2024/03/17 11:23:32;;;;;;;5.30;4.80;;;13.80;1.00;;;;;;7366704;19;20102;-73
2024/03/17 11:26:03;;;;;;;6.78;5.28;;;13.30;1.00;;;;;;7367366;19;20021;-71
2024/03/17 11:28:53;;;;;;;7.25;5.25;;;13.70;1.00;;;;;;7367228;19;20010;-72
2024/03/17 11:31:46;;;;;;;5.20;4.70;;;13.80;1.00;;;;;;7362937;19;20014;-71
2024/03/17 11:34:45;;;;;;;6.22;4.60;;;13.90;1.00;;;;;;7366169;19;20413;-71
2024/03/17 11:37:41;;;;;;;5.85;4.88;;;13.50;1.00;;;;;;7365105;19;20131;-71
2024/03/17 11:40:26;;;;;;;8.27;4.78;;;13.80;1.00;;;;;;7362353;19;20007;-72
2024/03/17 11:43:01;;;;;;;6.90;4.07;;;13.50;1.00;;;;;;6857545;19;2004169;-72
2024/03/17 11:45:32;;;;;;;7.32;4.78;;;13.20;1.00;;;;;;7366081;19;20030;-72
2024/03/17 11:47:59;;;;;;;6.00;4.63;;;13.70;1.00;;;;;;7367683;19;20006;-70
2024/03/17 11:50:28;;;;;;;5.05;4.20;;;13.80;1.00;;;;;;7364292;19;20505;-70
2024/03/17 11:53:00;;;;;;;5.28;4.30;;;14.10;1.00;;;;;;7365692;19;20439;-71
2024/03/17 11:55:29;;;;;;;5.28;4.57;;;14.00;1.00;;;;;;7365913;19;20017;-72
2024/03/17 11:57:56;;;;;;;5.60;4.38;;;14.00;1.00;;;;;;7366577;19;20011;-71
2024/03/17 12:00:26;;;;;;;4.32;3.92;;;13.80;1.00;;;;;;7361636;19;20013;-73
2024/03/17 12:02:58;;;;;;;5.43;3.78;;;13.70;1.00;;;;;;7364888;19;20006;-73
2024/03/17 12:05:27;;;;;;;5.20;4.40;;;13.80;1.00;;;;;;7364714;19;20049;-72
2024/03/17 12:07:54;;;;;;;6.80;4.38;;;13.80;1.00;;;;;;7365767;19;20018;-71
2024/03/17 12:10:23;;;;;;;5.15;4.18;;;13.80;1.00;;;;;;7365139;19;20007;-72
2024/03/17 12:12:49;;;;;;;6.72;4.43;;;14.00;1.00;;;;;;7366716;19;20014;-70
2024/03/17 12:15:21;;;;;;;5.85;4.50;;;13.80;1.00;;;;;;7364421;19;20692;-72
2024/03/17 12:17:56;;;;;;;6.63;4.25;;;13.80;1.00;;;;;;7366243;19;20010;-73
2024/03/17 12:20:28;;;;;;;6.28;4.30;;;13.80;1.00;;;;;;7364161;19;20014;-72
2024/03/17 12:22:57;;;;;;;4.80;4.05;;;14.00;1.00;;;;;;7366396;19;20078;-71
2024/03/17 12:25:26;;;;;;;6.70;4.38;;;14.30;1.00;;;;;;7364964;19;20011;-71
2024/03/17 12:27:52;;;;;;;5.10;4.28;;;14.10;1.00;;;;;;7365446;19;20481;-71
2024/03/17 12:30:22;;;;;;;4.80;4.25;;;14.20;1.00;;;;;;7362917;19;20374;-71
2024/03/17 12:32:50;;;;;;;5.55;4.32;;;13.90;1.00;;;;;;7365110;19;20035;-72
2024/03/17 12:35:21;;;;;;;6.30;3.90;;;14.00;1.00;;;;;;7368289;19;20107;-73
2024/03/17 12:37:48;;;;;;;5.15;4.43;;;14.20;1.00;;;;;;7362180;19;20017;-72
2024/03/17 12:40:25;;;;;;;5.90;3.80;;;14.30;1.00;;;;;;7366241;19;20015;-72
2024/03/17 12:42:51;;;;;;;5.88;4.05;;;14.40;1.00;;;;;;7365024;19;20484;-72
2024/03/17 12:45:24;;;;;;;5.88;3.90;;;14.30;1.00;;;;;;7363379;19;20014;-73
2024/03/17 12:47:52;;;;;;;6.07;4.88;;;14.40;1.00;;;;;;7363489;19;20003;-73
2024/03/17 12:50:23;;;;;;;6.50;4.18;;;13.70;1.00;;;;;;7363093;19;20011;-73
2024/03/17 12:52:55;;;;;;;7.22;4.85;;;13.90;1.00;;;;;;7363946;19;20010;-72
2024/03/17 13:01:00;;;;;;;4.88;3.85;;;14.00;1.00;;;;;;7356260;19;20016;-72
2024/03/17 13:03:31;;;;;;;4.43;4.03;;;13.90;1.00;;;;;;7363607;19;20011;-73
2024/03/17 13:06:06;;;;;;;5.65;4.28;;;13.90;1.00;;;;;;7362894;19;20017;-71
2024/03/17 13:08:35;;;;;;;8.18;4.20;;;13.80;1.00;;;;;;7365032;19;20050;-72